^^
Station Historical Data
Daily Summary for March 5, 2019 Units:  English    Metric   Both
« Previous Day
Next Day »
Daily Weekly Monthly Yearly Custom
  High: Low: Average:
Temperature: 19.6 °F 0.8 °F 9.2 °F
Dew Point: 12.2 °F -3.7 °F 3.5 °F
Humidity: 86% 71% 77%
Wind Speed: 19.0mph 4.0mph 11.4mph
Wind Gust: 24.0mph - -
Wind- - West
Pressure: 30.35 in 30.23 in -
Precipitation: 0.04 in    
Historical Graphs
 
 
Tabular Data for March 5, 2019
Time Temperature Dew Point Pressure Wind Wind Speed Wind Gust Humidity Rainfall Rate (Hourly) solar Conditions
00:04 8.2 °F 4.9 °F 30.23 in NW 11.0 mph 23.0 mph 86% 0.00 in 0.00 W/m2
00:09 8.0 °F 4.4 °F 30.23 in WNW 12.0 mph 23.0 mph 85% 0.00 in 0.00 W/m2
00:14 7.8 °F 4.2 °F 30.23 in NW 14.0 mph 23.0 mph 85% 0.00 in 0.00 W/m2
00:19 7.6 °F 4.0 °F 30.23 in NW 14.0 mph 23.0 mph 85% 0.00 in 0.00 W/m2
00:24 7.5 °F 3.7 °F 30.23 in WNW 13.0 mph 23.0 mph 84% 0.00 in 0.00 W/m2
00:29 7.3 °F 3.5 °F 30.23 in WNW 14.0 mph 23.0 mph 84% 0.00 in 0.00 W/m2
00:34 7.2 °F 3.4 °F 30.24 in WNW 11.0 mph 21.0 mph 84% 0.00 in 0.00 W/m2
00:39 6.9 °F 3.1 °F 30.24 in NW 15.0 mph 19.0 mph 84% 0.00 in 0.00 W/m2
00:44 6.7 °F 2.9 °F 30.23 in NW 11.0 mph 19.0 mph 84% 0.00 in 0.00 W/m2
00:49 6.5 °F 2.7 °F 30.23 in WNW 12.0 mph 19.0 mph 84% 0.00 in 0.00 W/m2
00:54 6.4 °F 2.6 °F 30.23 in WNW 10.0 mph 19.0 mph 84% 0.00 in 0.00 W/m2
00:59 6.2 °F 2.4 °F 30.24 in West 13.0 mph 17.0 mph 84% 0.00 in 0.00 W/m2
01:04 6.2 °F 2.4 °F 30.24 in WNW 8.0 mph 17.0 mph 84% 0.00 in 0.00 W/m2
01:09 6.0 °F 2.2 °F 30.25 in West 10.0 mph 15.0 mph 84% 0.00 in 0.00 W/m2
01:14 6.0 °F 2.5 °F 30.25 in WNW 11.0 mph 15.0 mph 85% 0.00 in 0.00 W/m2
01:19 5.9 °F 2.4 °F 30.25 in WNW 9.0 mph 15.0 mph 85% 0.00 in 0.00 W/m2
01:24 6.0 °F 2.5 °F 30.25 in WNW 8.0 mph 15.0 mph 85% 0.00 in 0.00 W/m2
01:29 6.0 °F 2.5 °F 30.25 in WNW 7.0 mph 15.0 mph 85% 0.00 in 0.00 W/m2
01:34 6.1 °F 2.6 °F 30.26 in WNW 8.0 mph 13.0 mph 85% 0.00 in 0.00 W/m2
01:39 6.2 °F 2.7 °F 30.26 in West 11.0 mph 13.0 mph 85% 0.00 in 0.00 W/m2
01:44 6.0 °F 2.2 °F 30.26 in WNW 12.0 mph 15.0 mph 84% 0.00 in 0.00 W/m2
01:49 5.9 °F 2.1 °F 30.26 in WNW 8.0 mph 15.0 mph 84% 0.00 in 0.00 W/m2
01:54 5.8 °F 2.0 °F 30.26 in WNW 9.0 mph 15.0 mph 84% 0.00 in 0.00 W/m2
01:59 5.7 °F 1.9 °F 30.27 in WNW 7.0 mph 15.0 mph 84% 0.00 in 0.00 W/m2
02:04 5.8 °F 2.0 °F 30.27 in WNW 10.0 mph 14.0 mph 84% 0.00 in 0.00 W/m2
02:09 5.7 °F 1.9 °F 30.26 in WNW 11.0 mph 14.0 mph 84% 0.00 in 0.00 W/m2
02:14 5.7 °F 1.9 °F 30.27 in WNW 12.0 mph 14.0 mph 84% 0.00 in 0.00 W/m2
02:19 5.6 °F 1.8 °F 30.27 in WNW 13.0 mph 17.0 mph 84% 0.00 in 0.00 W/m2
02:24 5.6 °F 1.8 °F 30.27 in NW 10.0 mph 17.0 mph 84% 0.00 in 0.00 W/m2
02:29 5.4 °F 1.4 °F 30.27 in WNW 8.0 mph 16.0 mph 83% 0.00 in 0.00 W/m2
02:34 5.3 °F 1.5 °F 30.27 in WNW 14.0 mph 16.0 mph 84% 0.00 in 0.00 W/m2
02:39 5.0 °F 1.0 °F 30.27 in WNW 16.0 mph 16.0 mph 83% 0.00 in 0.00 W/m2
02:44 4.9 °F 0.9 °F 30.27 in WNW 9.0 mph 18.0 mph 83% 0.00 in 0.00 W/m2
02:49 4.7 °F 0.7 °F 30.28 in WNW 10.0 mph 18.0 mph 83% 0.00 in 0.00 W/m2
02:54 4.4 °F 0.4 °F 30.27 in WNW 8.0 mph 16.0 mph 83% 0.00 in 0.00 W/m2
02:59 4.1 °F 0.1 °F 30.27 in West 10.0 mph 16.0 mph 83% 0.00 in 0.00 W/m2
03:04 4.0 °F 0.0 °F 30.27 in NW 11.0 mph 16.0 mph 83% 0.00 in 0.00 W/m2
03:09 3.8 °F -0.5 °F 30.27 in WNW 11.0 mph 16.0 mph 82% 0.00 in 0.00 W/m2
03:14 3.7 °F -0.6 °F 30.27 in WNW 10.0 mph 16.0 mph 82% 0.00 in 0.00 W/m2
03:19 3.6 °F -0.7 °F 30.28 in WNW 12.0 mph 15.0 mph 82% 0.00 in 0.00 W/m2
03:24 3.5 °F -0.8 °F 30.28 in WNW 9.0 mph 14.0 mph 82% 0.00 in 0.00 W/m2
03:29 3.3 °F -1.0 °F 30.28 in WNW 8.0 mph 13.0 mph 82% 0.00 in 0.00 W/m2
03:34 3.1 °F -1.2 °F 30.27 in WNW 8.0 mph 12.0 mph 82% 0.00 in 0.00 W/m2
03:39 2.9 °F -1.3 °F 30.28 in WNW 7.0 mph 11.0 mph 82% 0.00 in 0.00 W/m2
03:44 2.9 °F -1.3 °F 30.27 in West 7.0 mph 12.0 mph 82% 0.00 in 0.00 W/m2
03:49 2.8 °F -1.4 °F 30.27 in WNW 9.0 mph 12.0 mph 82% 0.00 in 0.00 W/m2
03:54 2.6 °F -1.6 °F 30.27 in West 6.0 mph 11.0 mph 82% 0.00 in 0.00 W/m2
03:59 2.1 °F -2.1 °F 30.27 in WNW 7.0 mph 11.0 mph 82% 0.00 in 0.00 W/m2
04:04 2.0 °F -2.2 °F 30.27 in West 6.0 mph 11.0 mph 82% 0.00 in 0.00 W/m2
04:09 1.7 °F -2.5 °F 30.28 in West 6.0 mph 11.0 mph 82% 0.00 in 0.00 W/m2
04:14 2.0 °F -2.0 °F 30.28 in WNW 7.0 mph 10.0 mph 83% 0.00 in 0.00 W/m2
04:19 2.3 °F -1.7 °F 30.28 in West 8.0 mph 10.0 mph 83% 0.00 in 0.00 W/m2
04:24 2.2 °F -1.8 °F 30.28 in WNW 9.0 mph 11.0 mph 83% 0.00 in 0.00 W/m2
04:29 1.9 °F -2.1 °F 30.28 in WNW 8.0 mph 11.0 mph 83% 0.00 in 0.00 W/m2
04:34 2.0 °F -2.0 °F 30.28 in West 9.0 mph 13.0 mph 83% 0.00 in 0.00 W/m2
04:39 1.7 °F -2.3 °F 30.29 in West 10.0 mph 13.0 mph 83% 0.00 in 0.00 W/m2
04:44 1.5 °F -2.5 °F 30.29 in West 9.0 mph 11.0 mph 83% 0.00 in 0.00 W/m2
04:49 1.9 °F -2.1 °F 30.29 in West 9.0 mph 13.0 mph 83% 0.00 in 0.00 W/m2
04:54 1.9 °F -2.1 °F 30.29 in West 11.0 mph 14.0 mph 83% 0.00 in 0.00 W/m2
04:59 2.2 °F -1.8 °F 30.29 in WNW 11.0 mph 14.0 mph 83% 0.00 in 0.00 W/m2
05:04 2.6 °F -1.4 °F 30.29 in West 10.0 mph 14.0 mph 83% 0.00 in 0.00 W/m2
05:09 2.6 °F -1.4 °F 30.29 in WNW 11.0 mph 14.0 mph 83% 0.00 in 0.00 W/m2
05:14 2.7 °F -1.5 °F 30.29 in WNW 11.0 mph 14.0 mph 82% 0.00 in 0.00 W/m2
05:19 2.7 °F -1.5 °F 30.29 in NW 6.0 mph 14.0 mph 82% 0.00 in 0.00 W/m2
05:24 2.8 °F -1.4 °F 30.28 in NW 13.0 mph 16.0 mph 82% 0.00 in 0.00 W/m2
05:29 2.9 °F -1.3 °F 30.29 in WNW 7.0 mph 17.0 mph 82% 0.00 in 0.00 W/m2
05:34 2.8 °F -1.7 °F 30.29 in WNW 9.0 mph 17.0 mph 81% 0.00 in 0.00 W/m2
05:39 2.8 °F -1.4 °F 30.29 in WNW 8.0 mph 15.0 mph 82% 0.00 in 0.00 W/m2
05:44 2.8 °F -1.7 °F 30.29 in West 7.0 mph 14.0 mph 81% 0.00 in 0.00 W/m2
05:49 2.7 °F -1.8 °F 30.29 in WNW 10.0 mph 14.0 mph 81% 0.00 in 0.00 W/m2
05:54 2.6 °F -1.9 °F 30.30 in WNW 12.0 mph 14.0 mph 81% 0.00 in 0.00 W/m2
05:59 2.8 °F -1.7 °F 30.30 in West 11.0 mph 18.0 mph 81% 0.00 in 0.00 W/m2
06:04 2.7 °F -1.8 °F 30.30 in West 11.0 mph 18.0 mph 81% 0.00 in 0.00 W/m2
06:09 2.5 °F -2.0 °F 30.30 in WNW 13.0 mph 18.0 mph 81% 0.00 in 0.00 W/m2
06:14 2.7 °F -1.8 °F 30.30 in WNW 14.0 mph 19.0 mph 81% 0.00 in 0.00 W/m2
06:19 2.5 °F -2.0 °F 30.30 in West 12.0 mph 19.0 mph 81% 0.00 in 0.00 W/m2
06:24 2.4 °F -2.1 °F 30.30 in WNW 15.0 mph 17.0 mph 81% 0.00 in 0.00 W/m2
06:29 2.4 °F -2.1 °F 30.30 in WNW 14.0 mph 17.0 mph 81% 0.00 in 0.00 W/m2
06:34 2.4 °F -2.1 °F 30.30 in West 13.0 mph 20.0 mph 81% 0.00 in 0.00 W/m2
06:39 2.3 °F -2.2 °F 30.30 in WNW 11.0 mph 20.0 mph 81% 0.00 in 0.00 W/m2
06:44 2.2 °F -2.3 °F 30.30 in West 9.0 mph 18.0 mph 81% 0.00 in 0.00 W/m2
06:49 2.2 °F -2.3 °F 30.30 in West 11.0 mph 20.0 mph 81% 0.00 in 0.00 W/m2
06:54 2.0 °F -2.5 °F 30.30 in WNW 13.0 mph 20.0 mph 81% 0.00 in 0.00 W/m2
06:59 1.7 °F -3.0 °F 30.30 in West 11.0 mph 17.0 mph 80% 0.00 in 0.00 W/m2
07:04 1.4 °F -3.1 °F 30.30 in West 11.0 mph 18.0 mph 81% 0.00 in 0.00 W/m2
07:09 1.2 °F -3.3 °F 30.31 in West 10.0 mph 18.0 mph 81% 0.00 in 0.00 W/m2
07:14 0.8 °F -3.7 °F 30.31 in West 13.0 mph 16.0 mph 81% 0.00 in 5.00 W/m2
07:19 1.1 °F -3.1 °F 30.31 in WNW 10.0 mph 16.0 mph 82% 0.00 in 9.00 W/m2
07:24 1.1 °F -3.4 °F 30.31 in West 12.0 mph 15.0 mph 81% 0.00 in 11.00 W/m2
07:29 1.4 °F -3.1 °F 30.31 in West 11.0 mph 16.0 mph 81% 0.00 in 14.00 W/m2
07:34 1.6 °F -2.9 °F 30.31 in WNW 13.0 mph 18.0 mph 81% 0.00 in 16.00 W/m2
07:39 1.5 °F -3.0 °F 30.31 in West 14.0 mph 18.0 mph 81% 0.00 in 19.00 W/m2
07:44 1.5 °F -3.0 °F 30.31 in WNW 12.0 mph 16.0 mph 81% 0.00 in 21.00 W/m2
07:49 1.5 °F -3.0 °F 30.31 in WNW 13.0 mph 15.0 mph 81% 0.00 in 23.00 W/m2
07:54 1.3 °F -3.4 °F 30.31 in WNW 14.0 mph 16.0 mph 80% 0.00 in 33.00 W/m2
07:59 1.4 °F -3.3 °F 30.31 in WNW 13.0 mph 16.0 mph 80% 0.00 in 47.00 W/m2
08:04 1.6 °F -3.1 °F 30.31 in West 14.0 mph 18.0 mph 80% 0.00 in 62.00 W/m2
08:09 1.9 °F -2.8 °F 30.31 in WNW 14.0 mph 19.0 mph 80% 0.00 in 77.00 W/m2
08:14 1.9 °F -2.8 °F 30.32 in West 15.0 mph 19.0 mph 80% 0.00 in 98.00 W/m2
08:19 2.0 °F -2.8 °F 30.32 in WNW 11.0 mph 17.0 mph 80% 0.00 in 116.00 W/m2
08:24 2.0 °F -2.8 °F 30.32 in West 12.0 mph 17.0 mph 80% 0.00 in 130.00 W/m2
08:29 2.1 °F -2.7 °F 30.32 in West 16.0 mph 16.0 mph 80% 0.00 in 148.00 W/m2
08:34 2.3 °F -2.7 °F 30.32 in WNW 15.0 mph 17.0 mph 79% 0.00 in 167.00 W/m2
08:39 2.4 °F -2.6 °F 30.32 in WNW 12.0 mph 17.0 mph 79% 0.00 in 185.00 W/m2
08:44 2.6 °F -2.4 °F 30.32 in WNW 14.0 mph 16.0 mph 79% 0.00 in 204.00 W/m2
08:49 2.8 °F -2.2 °F 30.32 in West 14.0 mph 17.0 mph 79% 0.00 in 202.00 W/m2
08:54 2.9 °F -2.1 °F 30.32 in West 13.0 mph 18.0 mph 79% 0.00 in 200.00 W/m2
08:59 3.2 °F -1.8 °F 30.33 in West 12.0 mph 18.0 mph 79% 0.00 in 211.00 W/m2
09:04 3.2 °F -2.1 °F 30.33 in WNW 17.0 mph 20.0 mph 78% 0.00 in 241.00 W/m2
09:09 3.2 °F -2.1 °F 30.33 in West 10.0 mph 20.0 mph 78% 0.00 in 262.00 W/m2
09:14 3.3 °F -2.0 °F 30.34 in WSW 12.0 mph 19.0 mph 78% 0.00 in 265.00 W/m2
09:19 3.7 °F -1.6 °F 30.34 in WSW 10.0 mph 17.0 mph 78% 0.00 in 271.00 W/m2
09:24 3.8 °F -1.5 °F 30.34 in WSW 12.0 mph 17.0 mph 78% 0.00 in 274.00 W/m2
09:29 3.9 °F -1.4 °F 30.34 in West 16.0 mph 20.0 mph 78% 0.00 in 251.00 W/m2
09:34 3.8 °F -1.8 °F 30.35 in West 18.0 mph 21.0 mph 77% 0.00 in 236.00 W/m2
09:39 3.8 °F -1.8 °F 30.35 in WSW 14.0 mph 21.0 mph 77% 0.00 in 279.00 W/m2
09:44 3.9 °F -1.7 °F 30.35 in West 12.0 mph 21.0 mph 77% 0.00 in 308.00 W/m2
09:49 3.8 °F -1.8 °F 30.35 in West 15.0 mph 20.0 mph 77% 0.00 in 320.00 W/m2
09:54 3.7 °F -1.9 °F 30.35 in WNW 14.0 mph 22.0 mph 77% 0.00 in 323.00 W/m2
09:59 3.7 °F -1.9 °F 30.34 in WNW 19.0 mph 22.0 mph 77% 0.00 in 334.00 W/m2
10:04 3.9 °F -1.7 °F 30.35 in WNW 13.0 mph 21.0 mph 77% 0.00 in 355.00 W/m2
10:09 4.1 °F -1.5 °F 30.34 in WNW 17.0 mph 21.0 mph 77% 0.00 in 392.00 W/m2
10:14 4.3 °F -1.3 °F 30.35 in WNW 14.0 mph 19.0 mph 77% 0.00 in 436.00 W/m2
10:19 4.6 °F -1.0 °F 30.35 in West 12.0 mph 18.0 mph 77% 0.00 in 471.00 W/m2
10:24 5.0 °F -0.6 °F 30.35 in WNW 12.0 mph 20.0 mph 77% 0.00 in 483.00 W/m2
10:29 5.5 °F -0.1 °F 30.34 in West 18.0 mph 20.0 mph 77% 0.00 in 496.00 W/m2
10:34 5.9 °F 0.2 °F 30.34 in West 15.0 mph 20.0 mph 77% 0.00 in 504.00 W/m2
10:39 6.2 °F 0.5 °F 30.35 in West 16.0 mph 21.0 mph 77% 0.00 in 515.00 W/m2
10:44 6.4 °F 0.7 °F 30.34 in West 18.0 mph 22.0 mph 77% 0.00 in 524.00 W/m2
10:49 6.7 °F 1.0 °F 30.34 in WNW 12.0 mph 22.0 mph 77% 0.00 in 534.00 W/m2
10:54 7.2 °F 1.5 °F 30.34 in West 19.0 mph 24.0 mph 77% 0.00 in 545.00 W/m2
10:59 7.4 °F 1.4 °F 30.34 in WNW 16.0 mph 24.0 mph 76% 0.00 in 554.00 W/m2
11:04 7.8 °F 1.8 °F 30.34 in NW 14.0 mph 19.0 mph 76% 0.00 in 563.00 W/m2
11:09 8.0 °F 2.0 °F 30.34 in WNW 17.0 mph 20.0 mph 76% 0.00 in 571.00 W/m2
11:14 8.4 °F 2.4 °F 30.34 in WNW 14.0 mph 22.0 mph 76% 0.00 in 578.00 W/m2
11:19 8.6 °F 2.3 °F 30.34 in NW 14.0 mph 22.0 mph 75% 0.00 in 585.00 W/m2
11:24 9.0 °F 2.7 °F 30.34 in NW 19.0 mph 20.0 mph 75% 0.00 in 594.00 W/m2
11:29 9.2 °F 2.9 °F 30.34 in NW 15.0 mph 20.0 mph 75% 0.00 in 601.00 W/m2
11:34 9.5 °F 3.2 °F 30.34 in WNW 13.0 mph 21.0 mph 75% 0.00 in 608.00 W/m2
11:39 9.8 °F 3.5 °F 30.34 in WNW 10.0 mph 21.0 mph 75% 0.00 in 615.00 W/m2
11:44 10.0 °F 3.7 °F 30.34 in WNW 17.0 mph 21.0 mph 75% 0.00 in 621.00 W/m2
11:49 10.1 °F 3.8 °F 30.34 in WNW 16.0 mph 22.0 mph 75% 0.00 in 626.00 W/m2
11:54 10.3 °F 3.9 °F 30.34 in NW 12.0 mph 22.0 mph 75% 0.00 in 629.00 W/m2
11:59 10.7 °F 4.3 °F 30.34 in WNW 13.0 mph 20.0 mph 75% 0.00 in 635.00 W/m2
12:04 10.9 °F 4.5 °F 30.34 in WNW 16.0 mph 20.0 mph 75% 0.00 in 635.00 W/m2
12:09 11.0 °F 4.6 °F 30.34 in WNW 14.0 mph 20.0 mph 75% 0.00 in 643.00 W/m2
12:14 11.4 °F 5.0 °F 30.34 in WNW 13.0 mph 20.0 mph 75% 0.00 in 647.00 W/m2
12:19 11.7 °F 5.3 °F 30.34 in WNW 13.0 mph 18.0 mph 75% 0.04 in 650.00 W/m2
12:24 11.8 °F 5.1 °F 30.34 in WNW 16.0 mph 22.0 mph 74% 0.04 in 652.00 W/m2
12:29 12.0 °F 5.3 °F 30.34 in WNW 15.0 mph 22.0 mph 74% 0.04 in 656.00 W/m2
12:34 12.2 °F 5.5 °F 30.34 in WNW 11.0 mph 21.0 mph 74% 0.04 in 657.00 W/m2
12:39 12.2 °F 5.5 °F 30.34 in West 16.0 mph 20.0 mph 74% 0.04 in 657.00 W/m2
12:44 12.0 °F 5.6 °F 30.34 in WNW 10.0 mph 19.0 mph 75% 0.04 in 661.00 W/m2
12:49 12.0 °F 5.6 °F 30.34 in WNW 14.0 mph 19.0 mph 75% 0.04 in 659.00 W/m2
12:54 12.2 °F 5.8 °F 30.34 in WNW 14.0 mph 19.0 mph 75% 0.04 in 661.00 W/m2
12:59 12.3 °F 5.9 °F 30.33 in WNW 11.0 mph 19.0 mph 75% 0.04 in 663.00 W/m2
13:04 12.4 °F 5.7 °F 30.33 in WNW 18.0 mph 19.0 mph 74% 0.04 in 664.00 W/m2
13:09 12.3 °F 5.9 °F 30.33 in West 15.0 mph 18.0 mph 75% 0.04 in 663.00 W/m2
13:14 12.2 °F 5.5 °F 30.33 in West 9.0 mph 19.0 mph 74% 0.04 in 661.00 W/m2
13:19 12.5 °F 6.1 °F 30.33 in West 12.0 mph 19.0 mph 75% 0.00 in 659.00 W/m2
13:24 12.7 °F 6.3 °F 30.33 in West 9.0 mph 17.0 mph 75% 0.00 in 657.00 W/m2
13:29 13.0 °F 6.6 °F 30.33 in West 14.0 mph 17.0 mph 75% 0.00 in 654.00 W/m2
13:34 13.0 °F 6.3 °F 30.33 in WNW 12.0 mph 17.0 mph 74% 0.00 in 650.00 W/m2
13:39 13.2 °F 6.8 °F 30.33 in West 14.0 mph 17.0 mph 75% 0.00 in 649.00 W/m2
13:44 13.2 °F 6.8 °F 30.33 in WNW 12.0 mph 18.0 mph 75% 0.00 in 647.00 W/m2
13:49 13.4 °F 7.0 °F 30.32 in WNW 16.0 mph 18.0 mph 75% 0.00 in 643.00 W/m2
13:54 13.7 °F 6.9 °F 30.32 in WNW 14.0 mph 18.0 mph 74% 0.00 in 638.00 W/m2
13:59 13.9 °F 7.1 °F 30.32 in WNW 8.0 mph 17.0 mph 74% 0.00 in 633.00 W/m2
14:04 14.0 °F 7.2 °F 30.32 in WNW 14.0 mph 17.0 mph 74% 0.00 in 629.00 W/m2
14:09 14.2 °F 7.4 °F 30.32 in WNW 11.0 mph 16.0 mph 74% 0.00 in 624.00 W/m2
14:14 14.5 °F 7.7 °F 30.31 in WNW 10.0 mph 16.0 mph 74% 0.00 in 621.00 W/m2
14:19 15.0 °F 8.5 °F 30.31 in West 10.0 mph 16.0 mph 75% 0.00 in 615.00 W/m2
14:24 15.1 °F 8.6 °F 30.31 in West 11.0 mph 15.0 mph 75% 0.00 in 606.00 W/m2
14:29 15.1 °F 8.3 °F 30.31 in West 13.0 mph 18.0 mph 74% 0.00 in 601.00 W/m2
14:34 15.3 °F 8.5 °F 30.30 in West 15.0 mph 18.0 mph 74% 0.00 in 591.00 W/m2
14:39 15.4 °F 8.6 °F 30.30 in West 14.0 mph 18.0 mph 74% 0.00 in 584.00 W/m2
14:44 15.5 °F 8.7 °F 30.30 in West 11.0 mph 18.0 mph 74% 0.00 in 575.00 W/m2
14:49 15.8 °F 8.7 °F 30.30 in West 12.0 mph 17.0 mph 73% 0.00 in 571.00 W/m2
14:54 15.9 °F 8.8 °F 30.29 in West 9.0 mph 17.0 mph 73% 0.00 in 559.00 W/m2
14:59 16.3 °F 9.2 °F 30.29 in West 14.0 mph 14.0 mph 73% 0.00 in 550.00 W/m2
15:04 16.4 °F 9.3 °F 30.29 in West 11.0 mph 18.0 mph 73% 0.00 in 545.00 W/m2
15:09 16.7 °F 9.5 °F 30.29 in West 11.0 mph 18.0 mph 73% 0.00 in 534.00 W/m2
15:14 16.9 °F 9.7 °F 30.29 in West 11.0 mph 17.0 mph 73% 0.00 in 526.00 W/m2
15:19 17.1 °F 9.9 °F 30.28 in West 16.0 mph 16.0 mph 73% 0.00 in 536.00 W/m2
15:24 17.2 °F 10.0 °F 30.28 in West 9.0 mph 16.0 mph 73% 0.00 in 527.00 W/m2
15:29 17.2 °F 9.7 °F 30.28 in West 13.0 mph 19.0 mph 72% 0.00 in 520.00 W/m2
15:34 17.2 °F 10.0 °F 30.28 in West 15.0 mph 19.0 mph 73% 0.00 in 504.00 W/m2
15:39 17.2 °F 10.0 °F 30.28 in West 14.0 mph 19.0 mph 73% 0.00 in 482.00 W/m2
15:44 17.2 °F 10.0 °F 30.28 in West 10.0 mph 18.0 mph 73% 0.00 in 244.00 W/m2
15:49 17.0 °F 9.8 °F 30.28 in West 12.0 mph 16.0 mph 73% 0.00 in 213.00 W/m2
15:54 17.0 °F 10.1 °F 30.28 in WSW 12.0 mph 17.0 mph 74% 0.00 in 257.00 W/m2
15:59 17.3 °F 10.4 °F 30.28 in West 9.0 mph 17.0 mph 74% 0.00 in 306.00 W/m2
16:04 17.7 °F 10.5 °F 30.28 in West 11.0 mph 17.0 mph 73% 0.00 in 350.00 W/m2
16:09 18.0 °F 10.8 °F 30.28 in West 19.0 mph 19.0 mph 73% 0.00 in 258.00 W/m2
16:14 18.1 °F 10.9 °F 30.28 in WSW 16.0 mph 19.0 mph 73% 0.00 in 209.00 W/m2
16:19 18.1 °F 10.9 °F 30.28 in WSW 14.0 mph 19.0 mph 73% 0.00 in 230.00 W/m2
16:24 18.3 °F 11.1 °F 30.28 in WSW 12.0 mph 18.0 mph 73% 0.00 in 376.00 W/m2
16:29 18.8 °F 11.3 °F 30.27 in WSW 11.0 mph 18.0 mph 72% 0.00 in 443.00 W/m2
16:34 19.2 °F 11.6 °F 30.27 in WSW 14.0 mph 19.0 mph 72% 0.00 in 397.00 W/m2
16:39 19.3 °F 11.7 °F 30.27 in West 12.0 mph 19.0 mph 72% 0.00 in 346.00 W/m2
16:44 19.5 °F 11.9 °F 30.27 in WSW 12.0 mph 16.0 mph 72% 0.00 in 323.00 W/m2
16:49 19.6 °F 12.0 °F 30.27 in WSW 14.0 mph 18.0 mph 72% 0.00 in 292.00 W/m2
16:54 19.2 °F 11.6 °F 30.27 in WSW 10.0 mph 18.0 mph 72% 0.00 in 163.00 W/m2
16:59 18.9 °F 11.7 °F 30.27 in SW 11.0 mph 17.0 mph 73% 0.00 in 288.00 W/m2
17:04 19.3 °F 12.1 °F 30.27 in WSW 10.0 mph 15.0 mph 73% 0.00 in 255.00 W/m2
17:09 19.4 °F 12.2 °F 30.27 in SW 10.0 mph 15.0 mph 73% 0.00 in 229.00 W/m2
17:14 19.5 °F 11.9 °F 30.27 in WSW 9.0 mph 15.0 mph 72% 0.00 in 197.00 W/m2
17:19 19.5 °F 11.9 °F 30.26 in West 11.0 mph 15.0 mph 72% 0.00 in 162.00 W/m2
17:24 19.4 °F 11.8 °F 30.26 in WSW 10.0 mph 14.0 mph 72% 0.00 in 141.00 W/m2
17:29 19.3 °F 11.7 °F 30.26 in WSW 9.0 mph 14.0 mph 72% 0.00 in 125.00 W/m2
17:34 19.3 °F 11.7 °F 30.26 in WSW 8.0 mph 14.0 mph 72% 0.00 in 95.00 W/m2
17:39 19.1 °F 11.6 °F 30.26 in West 6.0 mph 13.0 mph 72% 0.00 in 93.00 W/m2
17:44 19.0 °F 11.8 °F 30.25 in WSW 7.0 mph 10.0 mph 73% 0.00 in 76.00 W/m2
17:49 19.0 °F 11.8 °F 30.25 in WSW 6.0 mph 10.0 mph 73% 0.00 in 62.00 W/m2
17:54 18.9 °F 11.7 °F 30.25 in WSW 8.0 mph 9.0 mph 73% 0.00 in 47.00 W/m2
17:59 18.8 °F 11.6 °F 30.25 in West 10.0 mph 10.0 mph 73% 0.00 in 39.00 W/m2
18:04 18.7 °F 11.5 °F 30.25 in West 9.0 mph 12.0 mph 73% 0.00 in 30.00 W/m2
18:09 18.4 °F 11.2 °F 30.25 in West 8.0 mph 12.0 mph 73% 0.00 in 23.00 W/m2
18:14 18.2 °F 11.0 °F 30.25 in WSW 7.0 mph 10.0 mph 73% 0.00 in 19.00 W/m2
18:19 17.9 °F 10.7 °F 30.24 in West 8.0 mph 10.0 mph 73% 0.00 in 16.00 W/m2
18:24 17.5 °F 10.3 °F 30.24 in West 7.0 mph 10.0 mph 73% 0.00 in 12.00 W/m2
18:29 17.2 °F 10.0 °F 30.24 in WSW 11.0 mph 11.0 mph 73% 0.00 in 9.00 W/m2
18:34 16.8 °F 9.6 °F 30.24 in WSW 7.0 mph 11.0 mph 73% 0.00 in 7.00 W/m2
18:39 16.1 °F 9.0 °F 30.24 in WSW 5.0 mph 10.0 mph 73% 0.00 in 0.00 W/m2
18:44 15.5 °F 8.7 °F 30.24 in SW 4.0 mph 8.0 mph 74% 0.00 in 0.00 W/m2
18:49 15.3 °F 8.8 °F 30.25 in WSW 6.0 mph 7.0 mph 75% 0.00 in 0.00 W/m2
18:54 14.9 °F 8.1 °F 30.24 in WSW 5.0 mph 7.0 mph 74% 0.00 in 0.00 W/m2
18:59 14.5 °F 8.0 °F 30.24 in WSW 6.0 mph 8.0 mph 75% 0.00 in 0.00 W/m2
19:04 14.3 °F 8.1 °F 30.24 in WSW 6.0 mph 8.0 mph 76% 0.00 in 0.00 W/m2
19:09 14.2 °F 8.0 °F 30.24 in WSW 8.0 mph 9.0 mph 76% 0.00 in 0.00 W/m2
19:14 13.4 °F 7.0 °F 30.24 in WSW 8.0 mph 9.0 mph 75% 0.00 in 0.00 W/m2
19:19 13.0 °F 7.1 °F 30.24 in WSW 7.0 mph 9.0 mph 77% 0.00 in 0.00 W/m2
19:24 13.0 °F 7.1 °F 30.24 in WSW 6.0 mph 9.0 mph 77% 0.00 in 0.00 W/m2
19:29 12.8 °F 7.2 °F 30.23 in SW 5.0 mph 8.0 mph 78% 0.00 in 0.00 W/m2
19:34 12.8 °F 7.5 °F 30.23 in WSW 7.0 mph 8.0 mph 79% 0.00 in 0.00 W/m2
19:39 12.2 °F 6.7 °F 30.24 in WSW 8.0 mph 9.0 mph 78% 0.00 in 0.00 W/m2
19:44 11.8 °F 6.5 °F 30.23 in WSW 9.0 mph 10.0 mph 79% 0.00 in 0.00 W/m2
19:49 12.0 °F 6.7 °F 30.23 in WSW 10.0 mph 10.0 mph 79% 0.00 in 0.00 W/m2
19:54 12.1 °F 6.8 °F 30.23 in WSW 7.0 mph 11.0 mph 79% 0.00 in 0.00 W/m2
19:59 12.5 °F 7.2 °F 30.23 in WSW 6.0 mph 11.0 mph 79% 0.00 in 0.00 W/m2
20:04 12.7 °F 7.1 °F 30.23 in WSW 8.0 mph 9.0 mph 78% 0.00 in 0.00 W/m2
20:09 12.7 °F 7.1 °F 30.23 in WSW 7.0 mph 10.0 mph 78% 0.00 in 0.00 W/m2
20:14 12.6 °F 7.0 °F 30.23 in WSW 6.0 mph 10.0 mph 78% 0.00 in 0.00 W/m2
20:19 12.1 °F 6.3 °F 30.23 in WSW 6.0 mph 9.0 mph 77% 0.00 in 0.00 W/m2
20:24 12.2 °F 6.7 °F 30.23 in WSW 10.0 mph 12.0 mph 78% 0.00 in 0.00 W/m2
20:29 12.7 °F 6.9 °F 30.23 in WSW 11.0 mph 14.0 mph 77% 0.00 in 0.00 W/m2
20:34 13.1 °F 7.0 °F 30.23 in WSW 10.0 mph 14.0 mph 76% 0.00 in 0.00 W/m2
20:39 13.2 °F 7.0 °F 30.23 in West 11.0 mph 14.0 mph 76% 0.00 in 0.00 W/m2
20:44 13.0 °F 6.6 °F 30.23 in WSW 9.0 mph 13.0 mph 75% 0.00 in 0.00 W/m2
20:49 12.8 °F 6.4 °F 30.24 in WSW 10.0 mph 11.0 mph 75% 0.00 in 0.00 W/m2
20:54 12.8 °F 6.4 °F 30.23 in West 8.0 mph 11.0 mph 75% 0.00 in 0.00 W/m2
20:59 12.6 °F 6.2 °F 30.24 in West 10.0 mph 11.0 mph 75% 0.00 in 0.00 W/m2
21:04 12.4 °F 6.0 °F 30.24 in West 7.0 mph 11.0 mph 75% 0.00 in 0.00 W/m2
21:09 12.2 °F 5.8 °F 30.24 in West 10.0 mph 12.0 mph 75% 0.00 in 0.00 W/m2
21:14 11.9 °F 5.2 °F 30.24 in West 9.0 mph 12.0 mph 74% 0.00 in 0.00 W/m2
21:19 11.6 °F 5.2 °F 30.25 in West 10.0 mph 12.0 mph 75% 0.00 in 0.00 W/m2
21:24 11.4 °F 5.0 °F 30.25 in West 10.0 mph 12.0 mph 75% 0.00 in 0.00 W/m2
21:29 11.7 °F 5.6 °F 30.25 in West 8.0 mph 12.0 mph 76% 0.00 in 0.00 W/m2
21:34 11.7 °F 5.3 °F 30.25 in WSW 12.0 mph 14.0 mph 75% 0.00 in 0.00 W/m2
21:39 11.7 °F 5.0 °F 30.25 in West 13.0 mph 14.0 mph 74% 0.00 in 0.00 W/m2
21:44 11.2 °F 4.5 °F 30.24 in West 15.0 mph 16.0 mph 74% 0.00 in 0.00 W/m2
21:49 11.3 °F 4.6 °F 30.24 in WSW 14.0 mph 17.0 mph 74% 0.00 in 0.00 W/m2
21:54 11.3 °F 4.3 °F 30.24 in WSW 12.0 mph 17.0 mph 73% 0.00 in 0.00 W/m2
21:59 11.4 °F 4.7 °F 30.24 in West 15.0 mph 17.0 mph 74% 0.00 in 0.00 W/m2
22:04 11.6 °F 4.6 °F 30.24 in West 13.0 mph 19.0 mph 73% 0.00 in 0.00 W/m2
22:09 11.4 °F 4.4 °F 30.24 in West 15.0 mph 19.0 mph 73% 0.00 in 0.00 W/m2
22:14 11.5 °F 4.5 °F 30.24 in West 12.0 mph 19.0 mph 73% 0.00 in 0.00 W/m2
22:19 11.4 °F 4.4 °F 30.24 in West 14.0 mph 18.0 mph 73% 0.00 in 0.00 W/m2
22:24 12.0 °F 4.7 °F 30.24 in West 18.0 mph 21.0 mph 72% 0.00 in 0.00 W/m2
22:29 11.9 °F 4.6 °F 30.24 in West 18.0 mph 21.0 mph 72% 0.00 in 0.00 W/m2
22:34 12.0 °F 4.4 °F 30.24 in West 15.0 mph 22.0 mph 71% 0.00 in 0.00 W/m2
22:39 11.7 °F 4.1 °F 30.24 in West 16.0 mph 22.0 mph 71% 0.00 in 0.00 W/m2
22:44 11.6 °F 4.3 °F 30.24 in West 17.0 mph 20.0 mph 72% 0.00 in 0.00 W/m2
22:49 11.2 °F 3.9 °F 30.24 in WNW 15.0 mph 20.0 mph 72% 0.00 in 0.00 W/m2
22:54 11.0 °F 3.7 °F 30.24 in West 16.0 mph 18.0 mph 72% 0.00 in 0.00 W/m2
22:59 10.8 °F 3.8 °F 30.24 in West 16.0 mph 20.0 mph 73% 0.00 in 0.00 W/m2
23:04 11.0 °F 4.0 °F 30.24 in WNW 13.0 mph 22.0 mph 73% 0.00 in 0.00 W/m2
23:09 10.8 °F 3.5 °F 30.24 in WNW 14.0 mph 22.0 mph 72% 0.00 in 0.00 W/m2
23:14 10.5 °F 3.6 °F 30.24 in West 12.0 mph 19.0 mph 73% 0.00 in 0.00 W/m2
23:19 10.5 °F 3.6 °F 30.24 in WNW 13.0 mph 19.0 mph 73% 0.00 in 0.00 W/m2
23:24 10.3 °F 3.4 °F 30.24 in WNW 8.0 mph 18.0 mph 73% 0.00 in 0.00 W/m2
23:29 10.0 °F 3.1 °F 30.23 in West 15.0 mph 18.0 mph 73% 0.00 in 0.00 W/m2
23:34 10.1 °F 3.2 °F 30.23 in West 17.0 mph 20.0 mph 73% 0.00 in 0.00 W/m2
23:39 10.0 °F 3.1 °F 30.23 in WNW 8.0 mph 20.0 mph 73% 0.00 in 0.00 W/m2
23:44 9.8 °F 2.9 °F 30.23 in WNW 10.0 mph 17.0 mph 73% 0.00 in 0.00 W/m2
23:49 9.5 °F 2.3 °F 30.23 in WNW 10.0 mph 17.0 mph 72% 0.00 in 0.00 W/m2
23:54 9.1 °F 2.2 °F 30.23 in WNW 7.0 mph 15.0 mph 73% 0.00 in 0.00 W/m2
23:59 8.7 °F 1.8 °F 30.23 in WNW 7.0 mph 14.0 mph 73% 0.00 in 0.00 W/m2
Bismarck, North Dakota, USA
Compliments of Weather Underground - 4 mb